sensor_id;sensor_type;location;lat;lon;timestamp;P1;durP1;ratioP1;P2;durP2;ratioP2
50559;SDS011;36510;52.610;13.468;2022-09-09T00:03:17;8.52;;;5.03;;
50559;SDS011;36510;52.610;13.468;2022-09-09T00:08:24;9.13;;;6.30;;
50559;SDS011;36510;52.610;13.468;2022-09-09T00:13:41;7.05;;;5.72;;
50559;SDS011;36510;52.610;13.468;2022-09-09T00:18:45;9.00;;;6.57;;
50559;SDS011;36510;52.610;13.468;2022-09-09T00:23:47;8.80;;;6.38;;
50559;SDS011;36510;52.610;13.468;2022-09-09T00:28:46;9.77;;;5.80;;
50559;SDS011;36510;52.610;13.468;2022-09-09T00:33:50;10.30;;;7.90;;
50559;SDS011;36510;52.610;13.468;2022-09-09T00:38:49;11.55;;;8.25;;
50559;SDS011;36510;52.610;13.468;2022-09-09T00:43:49;10.73;;;6.28;;
50559;SDS011;36510;52.610;13.468;2022-09-09T00:49:03;9.40;;;6.30;;
50559;SDS011;36510;52.610;13.468;2022-09-09T00:54:08;8.15;;;6.47;;
50559;SDS011;36510;52.610;13.468;2022-09-09T01:04:20;9.00;;;6.20;;
50559;SDS011;36510;52.610;13.468;2022-09-09T01:09:21;8.07;;;6.43;;
50559;SDS011;36510;52.610;13.468;2022-09-09T01:19:29;8.27;;;5.97;;
50559;SDS011;36510;52.610;13.468;2022-09-09T01:24:36;8.32;;;6.68;;
50559;SDS011;36510;52.610;13.468;2022-09-09T01:29:33;9.02;;;5.70;;
50559;SDS011;36510;52.610;13.468;2022-09-09T01:34:29;7.07;;;5.70;;
50559;SDS011;36510;52.610;13.468;2022-09-09T01:39:23;7.45;;;6.30;;
50559;SDS011;36510;52.610;13.468;2022-09-09T01:44:14;7.78;;;5.72;;
50559;SDS011;36510;52.610;13.468;2022-09-09T01:49:08;9.05;;;5.75;;
50559;SDS011;36510;52.610;13.468;2022-09-09T01:53:58;7.88;;;6.55;;
50559;SDS011;36510;52.610;13.468;2022-09-09T02:03:57;7.93;;;5.57;;
50559;SDS011;36510;52.610;13.468;2022-09-09T02:08:57;8.00;;;5.32;;
50559;SDS011;36510;52.610;13.468;2022-09-09T02:13:51;6.28;;;5.28;;
50559;SDS011;36510;52.610;13.468;2022-09-09T02:18:56;7.72;;;5.90;;
50559;SDS011;36510;52.610;13.468;2022-09-09T02:23:52;6.85;;;5.38;;
50559;SDS011;36510;52.610;13.468;2022-09-09T02:28:44;7.53;;;5.63;;
50559;SDS011;36510;52.610;13.468;2022-09-09T02:33:37;6.72;;;5.43;;
50559;SDS011;36510;52.610;13.468;2022-09-09T02:38:35;6.43;;;5.63;;
50559;SDS011;36510;52.610;13.468;2022-09-09T02:43:33;8.68;;;5.15;;
50559;SDS011;36510;52.610;13.468;2022-09-09T02:48:30;6.22;;;5.40;;
50559;SDS011;36510;52.610;13.468;2022-09-09T02:53:43;8.52;;;5.45;;
50559;SDS011;36510;52.610;13.468;2022-09-09T02:58:49;6.85;;;5.97;;
50559;SDS011;36510;52.610;13.468;2022-09-09T03:03:41;8.52;;;5.90;;
50559;SDS011;36510;52.610;13.468;2022-09-09T03:08:34;7.72;;;5.47;;
50559;SDS011;36510;52.610;13.468;2022-09-09T03:13:24;8.15;;;5.65;;
50559;SDS011;36510;52.610;13.468;2022-09-09T03:18:15;9.05;;;5.85;;
50559;SDS011;36510;52.610;13.468;2022-09-09T03:23:05;9.27;;;5.20;;
50559;SDS011;36510;52.610;13.468;2022-09-09T03:27:56;6.28;;;5.15;;
50559;SDS011;36510;52.610;13.468;2022-09-09T03:32:47;8.93;;;5.40;;
50559;SDS011;36510;52.610;13.468;2022-09-09T03:37:38;7.35;;;5.30;;
50559;SDS011;36510;52.610;13.468;2022-09-09T03:42:28;7.43;;;5.45;;
50559;SDS011;36510;52.610;13.468;2022-09-09T03:47:21;6.90;;;5.15;;
50559;SDS011;36510;52.610;13.468;2022-09-09T03:52:11;6.43;;;4.97;;
50559;SDS011;36510;52.610;13.468;2022-09-09T03:57:02;7.38;;;5.00;;
50559;SDS011;36510;52.610;13.468;2022-09-09T04:01:54;7.45;;;5.60;;
50559;SDS011;36510;52.610;13.468;2022-09-09T04:06:44;8.00;;;5.45;;
50559;SDS011;36510;52.610;13.468;2022-09-09T04:11:35;7.75;;;5.35;;
50559;SDS011;36510;52.610;13.468;2022-09-09T04:16:27;6.78;;;5.05;;
50559;SDS011;36510;52.610;13.468;2022-09-09T04:21:17;9.73;;;5.72;;
50559;SDS011;36510;52.610;13.468;2022-09-09T04:26:08;7.35;;;4.80;;
50559;SDS011;36510;52.610;13.468;2022-09-09T04:31:09;7.50;;;5.53;;
50559;SDS011;36510;52.610;13.468;2022-09-09T04:36:02;8.63;;;5.45;;
50559;SDS011;36510;52.610;13.468;2022-09-09T04:40:53;7.80;;;4.82;;
50559;SDS011;36510;52.610;13.468;2022-09-09T04:45:46;7.68;;;5.68;;
50559;SDS011;36510;52.610;13.468;2022-09-09T04:50:37;6.28;;;4.65;;
50559;SDS011;36510;52.610;13.468;2022-09-09T04:55:28;6.00;;;5.03;;
50559;SDS011;36510;52.610;13.468;2022-09-09T05:00:19;7.82;;;4.93;;
50559;SDS011;36510;52.610;13.468;2022-09-09T05:05:09;7.43;;;5.07;;
50559;SDS011;36510;52.610;13.468;2022-09-09T05:10:01;7.05;;;5.72;;
50559;SDS011;36510;52.610;13.468;2022-09-09T05:14:55;6.60;;;5.40;;
50559;SDS011;36510;52.610;13.468;2022-09-09T05:19:46;6.68;;;4.97;;
50559;SDS011;36510;52.610;13.468;2022-09-09T05:24:37;7.47;;;5.35;;
50559;SDS011;36510;52.610;13.468;2022-09-09T05:29:28;7.40;;;6.00;;
50559;SDS011;36510;52.610;13.468;2022-09-09T05:34:19;7.93;;;5.68;;
50559;SDS011;36510;52.610;13.468;2022-09-09T05:39:10;7.47;;;5.03;;
50559;SDS011;36510;52.610;13.468;2022-09-09T05:44:01;8.43;;;5.97;;
50559;SDS011;36510;52.610;13.468;2022-09-09T05:48:53;8.00;;;5.78;;
50559;SDS011;36510;52.610;13.468;2022-09-09T05:53:44;11.23;;;6.40;;
50559;SDS011;36510;52.610;13.468;2022-09-09T05:58:35;12.27;;;5.70;;
50559;SDS011;36510;52.610;13.468;2022-09-09T06:03:26;8.63;;;6.35;;
50559;SDS011;36510;52.610;13.468;2022-09-09T06:08:17;7.45;;;5.60;;
50559;SDS011;36510;52.610;13.468;2022-09-09T06:13:07;8.52;;;5.20;;
50559;SDS011;36510;52.610;13.468;2022-09-09T06:17:59;9.73;;;5.65;;
50559;SDS011;36510;52.610;13.468;2022-09-09T06:22:50;11.13;;;4.72;;
50559;SDS011;36510;52.610;13.468;2022-09-09T06:27:40;8.35;;;4.68;;
50559;SDS011;36510;52.610;13.468;2022-09-09T06:32:32;7.80;;;4.97;;
50559;SDS011;36510;52.610;13.468;2022-09-09T06:37:26;8.00;;;5.35;;
50559;SDS011;36510;52.610;13.468;2022-09-09T06:42:18;8.38;;;4.40;;
50559;SDS011;36510;52.610;13.468;2022-09-09T06:47:09;7.97;;;4.63;;
50559;SDS011;36510;52.610;13.468;2022-09-09T06:51:59;10.52;;;5.30;;
50559;SDS011;36510;52.610;13.468;2022-09-09T06:56:50;8.98;;;4.60;;
50559;SDS011;36510;52.610;13.468;2022-09-09T07:01:41;8.75;;;3.83;;
50559;SDS011;36510;52.610;13.468;2022-09-09T07:06:42;6.32;;;3.90;;
50559;SDS011;36510;52.610;13.468;2022-09-09T07:11:37;6.38;;;4.38;;
50559;SDS011;36510;52.610;13.468;2022-09-09T07:16:31;6.80;;;4.35;;
50559;SDS011;36510;52.610;13.468;2022-09-09T07:21:23;6.75;;;3.60;;
50559;SDS011;36510;52.610;13.468;2022-09-09T07:26:17;5.18;;;3.05;;
50559;SDS011;36510;52.610;13.468;2022-09-09T07:31:15;5.68;;;3.13;;
50559;SDS011;36510;52.610;13.468;2022-09-09T07:36:08;6.35;;;3.10;;
50559;SDS011;36510;52.610;13.468;2022-09-09T07:41:06;7.10;;;2.65;;
50559;SDS011;36510;52.610;13.468;2022-09-09T07:46:01;5.72;;;2.70;;
50559;SDS011;36510;52.610;13.468;2022-09-09T07:50:52;6.47;;;3.03;;
50559;SDS011;36510;52.610;13.468;2022-09-09T07:55:42;7.00;;;3.28;;
50559;SDS011;36510;52.610;13.468;2022-09-09T08:00:33;5.00;;;2.63;;
50559;SDS011;36510;52.610;13.468;2022-09-09T08:05:23;9.68;;;3.40;;
50559;SDS011;36510;52.610;13.468;2022-09-09T08:10:14;6.50;;;2.60;;
50559;SDS011;36510;52.610;13.468;2022-09-09T08:15:06;6.55;;;2.50;;
50559;SDS011;36510;52.610;13.468;2022-09-09T08:19:56;3.28;;;2.10;;
50559;SDS011;36510;52.610;13.468;2022-09-09T08:24:47;5.13;;;2.08;;
50559;SDS011;36510;52.610;13.468;2022-09-09T08:29:37;6.22;;;1.80;;
50559;SDS011;36510;52.610;13.468;2022-09-09T08:34:28;3.60;;;2.20;;
50559;SDS011;36510;52.610;13.468;2022-09-09T08:39:20;3.08;;;1.65;;
50559;SDS011;36510;52.610;13.468;2022-09-09T08:54:39;5.13;;;2.00;;
50559;SDS011;36510;52.610;13.468;2022-09-09T08:59:30;4.47;;;2.08;;
50559;SDS011;36510;52.610;13.468;2022-09-09T09:09:53;4.22;;;1.95;;
50559;SDS011;36510;52.610;13.468;2022-09-09T09:14:52;8.95;;;2.17;;
50559;SDS011;36510;52.610;13.468;2022-09-09T09:19:46;4.75;;;2.13;;
50559;SDS011;36510;52.610;13.468;2022-09-09T09:29:49;5.53;;;2.17;;
50559;SDS011;36510;52.610;13.468;2022-09-09T09:34:42;4.65;;;2.00;;
50559;SDS011;36510;52.610;13.468;2022-09-09T09:39:38;5.13;;;1.77;;
50559;SDS011;36510;52.610;13.468;2022-09-09T09:44:30;3.80;;;1.90;;
50559;SDS011;36510;52.610;13.468;2022-09-09T09:49:21;5.55;;;2.28;;
50559;SDS011;36510;52.610;13.468;2022-09-09T09:59:03;3.13;;;1.40;;
50559;SDS011;36510;52.610;13.468;2022-09-09T10:03:55;3.20;;;1.52;;
50559;SDS011;36510;52.610;13.468;2022-09-09T10:08:48;3.83;;;1.73;;
50559;SDS011;36510;52.610;13.468;2022-09-09T10:18:58;2.28;;;1.13;;
50559;SDS011;36510;52.610;13.468;2022-09-09T10:24:17;1.83;;;1.02;;
50559;SDS011;36510;52.610;13.468;2022-09-09T10:39:39;5.63;;;1.40;;
50559;SDS011;36510;52.610;13.468;2022-09-09T10:44:36;3.22;;;1.20;;
50559;SDS011;36510;52.610;13.468;2022-09-09T11:00:04;4.15;;;1.70;;
50559;SDS011;36510;52.610;13.468;2022-09-09T11:05:20;4.65;;;1.30;;
50559;SDS011;36510;52.610;13.468;2022-09-09T11:11:03;3.58;;;0.90;;
50559;SDS011;36510;52.610;13.468;2022-09-09T11:20:33;4.18;;;1.15;;
50559;SDS011;36510;52.610;13.468;2022-09-09T11:25:35;2.50;;;0.93;;
50559;SDS011;36510;52.610;13.468;2022-09-09T11:30:50;3.10;;;0.90;;
50559;SDS011;36510;52.610;13.468;2022-09-09T11:36:11;5.38;;;1.15;;
50559;SDS011;36510;52.610;13.468;2022-09-09T11:41:18;4.70;;;1.38;;
50559;SDS011;36510;52.610;13.468;2022-09-09T11:46:11;3.38;;;1.25;;
50559;SDS011;36510;52.610;13.468;2022-09-09T11:51:06;3.72;;;1.27;;
50559;SDS011;36510;52.610;13.468;2022-09-09T11:56:02;3.63;;;1.30;;
50559;SDS011;36510;52.610;13.468;2022-09-09T12:00:55;2.92;;;1.00;;
50559;SDS011;36510;52.610;13.468;2022-09-09T12:05:46;2.42;;;1.10;;
50559;SDS011;36510;52.610;13.468;2022-09-09T12:10:38;5.35;;;1.25;;
50559;SDS011;36510;52.610;13.468;2022-09-09T12:15:30;3.47;;;1.10;;
50559;SDS011;36510;52.610;13.468;2022-09-09T12:20:31;5.55;;;1.10;;
50559;SDS011;36510;52.610;13.468;2022-09-09T12:36:12;3.03;;;0.93;;
50559;SDS011;36510;52.610;13.468;2022-09-09T12:41:22;5.50;;;1.33;;
50559;SDS011;36510;52.610;13.468;2022-09-09T12:51:35;3.58;;;1.00;;
50559;SDS011;36510;52.610;13.468;2022-09-09T12:56:28;2.25;;;0.82;;
50559;SDS011;36510;52.610;13.468;2022-09-09T13:01:25;5.47;;;0.90;;
50559;SDS011;36510;52.610;13.468;2022-09-09T13:06:21;2.67;;;0.80;;
50559;SDS011;36510;52.610;13.468;2022-09-09T13:11:15;4.05;;;1.08;;
50559;SDS011;36510;52.610;13.468;2022-09-09T13:16:23;2.67;;;0.90;;
50559;SDS011;36510;52.610;13.468;2022-09-09T13:21:32;2.33;;;0.95;;
50559;SDS011;36510;52.610;13.468;2022-09-09T13:26:38;3.03;;;0.95;;
50559;SDS011;36510;52.610;13.468;2022-09-09T13:31:41;3.45;;;0.90;;
50559;SDS011;36510;52.610;13.468;2022-09-09T13:36:36;2.42;;;0.80;;
50559;SDS011;36510;52.610;13.468;2022-09-09T13:41:34;1.88;;;0.80;;
50559;SDS011;36510;52.610;13.468;2022-09-09T13:51:33;1.43;;;0.90;;
50559;SDS011;36510;52.610;13.468;2022-09-09T13:56:27;2.67;;;0.90;;
50559;SDS011;36510;52.610;13.468;2022-09-09T14:01:18;3.22;;;0.70;;
50559;SDS011;36510;52.610;13.468;2022-09-09T14:06:09;2.05;;;1.00;;
50559;SDS011;36510;52.610;13.468;2022-09-09T14:11:00;5.20;;;1.15;;
50559;SDS011;36510;52.610;13.468;2022-09-09T14:15:51;3.55;;;0.80;;
50559;SDS011;36510;52.610;13.468;2022-09-09T14:20:42;2.88;;;0.90;;
50559;SDS011;36510;52.610;13.468;2022-09-09T14:25:33;4.22;;;1.05;;
50559;SDS011;36510;52.610;13.468;2022-09-09T14:30:23;2.70;;;0.70;;
50559;SDS011;36510;52.610;13.468;2022-09-09T14:35:14;1.88;;;0.75;;
50559;SDS011;36510;52.610;13.468;2022-09-09T14:40:04;3.47;;;0.80;;
50559;SDS011;36510;52.610;13.468;2022-09-09T14:44:56;2.53;;;0.82;;
50559;SDS011;36510;52.610;13.468;2022-09-09T14:49:46;4.28;;;1.40;;
50559;SDS011;36510;52.610;13.468;2022-09-09T14:54:39;4.03;;;1.08;;
50559;SDS011;36510;52.610;13.468;2022-09-09T14:59:30;3.28;;;0.82;;
50559;SDS011;36510;52.610;13.468;2022-09-09T15:04:20;11.13;;;9.93;;
50559;SDS011;36510;52.610;13.468;2022-09-09T15:09:11;3.95;;;1.00;;
50559;SDS011;36510;52.610;13.468;2022-09-09T15:14:02;5.20;;;0.70;;
50559;SDS011;36510;52.610;13.468;2022-09-09T15:18:55;1.23;;;0.68;;
50559;SDS011;36510;52.610;13.468;2022-09-09T15:23:48;1.70;;;0.65;;
50559;SDS011;36510;52.610;13.468;2022-09-09T15:28:39;4.20;;;0.88;;
50559;SDS011;36510;52.610;13.468;2022-09-09T15:33:31;2.70;;;1.20;;
50559;SDS011;36510;52.610;13.468;2022-09-09T15:38:21;2.30;;;0.80;;
50559;SDS011;36510;52.610;13.468;2022-09-09T15:43:12;3.47;;;0.82;;
50559;SDS011;36510;52.610;13.468;2022-09-09T15:48:03;2.53;;;1.00;;
50559;SDS011;36510;52.610;13.468;2022-09-09T15:52:54;3.55;;;1.00;;
50559;SDS011;36510;52.610;13.468;2022-09-09T15:57:45;1.90;;;0.95;;
50559;SDS011;36510;52.610;13.468;2022-09-09T16:02:36;3.05;;;0.80;;
50559;SDS011;36510;52.610;13.468;2022-09-09T16:07:26;4.13;;;1.00;;
50559;SDS011;36510;52.610;13.468;2022-09-09T16:12:17;1.98;;;0.88;;
50559;SDS011;36510;52.610;13.468;2022-09-09T16:17:08;3.78;;;0.85;;
50559;SDS011;36510;52.610;13.468;2022-09-09T16:21:58;1.55;;;1.00;;
50559;SDS011;36510;52.610;13.468;2022-09-09T16:26:50;2.95;;;0.98;;
50559;SDS011;36510;52.610;13.468;2022-09-09T16:31:41;6.43;;;1.00;;
50559;SDS011;36510;52.610;13.468;2022-09-09T16:36:33;2.72;;;0.75;;
50559;SDS011;36510;52.610;13.468;2022-09-09T16:41:25;2.40;;;1.10;;
50559;SDS011;36510;52.610;13.468;2022-09-09T16:46:19;3.90;;;1.10;;
50559;SDS011;36510;52.610;13.468;2022-09-09T16:51:14;3.15;;;0.85;;
50559;SDS011;36510;52.610;13.468;2022-09-09T16:56:14;2.72;;;0.95;;
50559;SDS011;36510;52.610;13.468;2022-09-09T17:01:09;4.90;;;1.52;;
50559;SDS011;36510;52.610;13.468;2022-09-09T17:06:01;3.35;;;1.30;;
50559;SDS011;36510;52.610;13.468;2022-09-09T17:10:52;4.50;;;1.20;;
50559;SDS011;36510;52.610;13.468;2022-09-09T17:15:42;3.58;;;1.45;;
50559;SDS011;36510;52.610;13.468;2022-09-09T17:20:35;3.70;;;1.17;;
50559;SDS011;36510;52.610;13.468;2022-09-09T17:25:26;2.42;;;0.90;;
50559;SDS011;36510;52.610;13.468;2022-09-09T17:30:17;5.47;;;1.25;;
50559;SDS011;36510;52.610;13.468;2022-09-09T17:35:08;6.85;;;1.60;;
50559;SDS011;36510;52.610;13.468;2022-09-09T17:40:00;2.70;;;1.30;;
50559;SDS011;36510;52.610;13.468;2022-09-09T17:44:52;4.95;;;2.35;;
50559;SDS011;36510;52.610;13.468;2022-09-09T17:49:43;4.40;;;1.40;;
50559;SDS011;36510;52.610;13.468;2022-09-09T17:54:33;4.18;;;1.48;;
50559;SDS011;36510;52.610;13.468;2022-09-09T17:59:24;5.63;;;1.65;;
50559;SDS011;36510;52.610;13.468;2022-09-09T18:04:15;5.10;;;1.50;;
50559;SDS011;36510;52.610;13.468;2022-09-09T18:09:11;3.45;;;1.30;;
50559;SDS011;36510;52.610;13.468;2022-09-09T18:14:03;4.70;;;1.40;;
50559;SDS011;36510;52.610;13.468;2022-09-09T18:18:55;1.25;;;0.80;;
50559;SDS011;36510;52.610;13.468;2022-09-09T18:23:47;2.03;;;0.98;;
50559;SDS011;36510;52.610;13.468;2022-09-09T18:28:41;3.42;;;0.95;;
50559;SDS011;36510;52.610;13.468;2022-09-09T18:33:39;4.32;;;1.30;;
50559;SDS011;36510;52.610;13.468;2022-09-09T18:38:32;5.45;;;1.80;;
50559;SDS011;36510;52.610;13.468;2022-09-09T18:43:24;3.65;;;1.80;;
50559;SDS011;36510;52.610;13.468;2022-09-09T18:48:15;3.08;;;1.98;;
50559;SDS011;36510;52.610;13.468;2022-09-09T18:53:05;4.20;;;1.83;;
50559;SDS011;36510;52.610;13.468;2022-09-09T18:57:56;4.72;;;1.40;;
50559;SDS011;36510;52.610;13.468;2022-09-09T19:02:48;4.60;;;1.25;;
50559;SDS011;36510;52.610;13.468;2022-09-09T19:07:41;3.55;;;1.52;;
50559;SDS011;36510;52.610;13.468;2022-09-09T19:12:32;2.33;;;1.10;;
50559;SDS011;36510;52.610;13.468;2022-09-09T19:17:22;2.88;;;1.23;;
50559;SDS011;36510;52.610;13.468;2022-09-09T19:22:15;2.42;;;1.20;;
50559;SDS011;36510;52.610;13.468;2022-09-09T19:27:05;2.67;;;1.40;;
50559;SDS011;36510;52.610;13.468;2022-09-09T19:31:56;3.60;;;1.27;;
50559;SDS011;36510;52.610;13.468;2022-09-09T19:36:48;4.40;;;1.48;;
50559;SDS011;36510;52.610;13.468;2022-09-09T19:41:40;3.67;;;1.42;;
50559;SDS011;36510;52.610;13.468;2022-09-09T19:46:33;3.53;;;1.42;;
50559;SDS011;36510;52.610;13.468;2022-09-09T19:51:25;5.22;;;1.67;;
50559;SDS011;36510;52.610;13.468;2022-09-09T19:56:18;4.53;;;1.55;;
50559;SDS011;36510;52.610;13.468;2022-09-09T20:01:12;4.75;;;1.55;;
50559;SDS011;36510;52.610;13.468;2022-09-09T20:06:08;3.90;;;2.50;;
50559;SDS011;36510;52.610;13.468;2022-09-09T20:11:01;3.33;;;2.35;;
50559;SDS011;36510;52.610;13.468;2022-09-09T20:15:59;2.05;;;1.40;;
50559;SDS011;36510;52.610;13.468;2022-09-09T20:20:56;2.72;;;1.50;;
50559;SDS011;36510;52.610;13.468;2022-09-09T20:25:49;1.95;;;1.20;;
50559;SDS011;36510;52.610;13.468;2022-09-09T20:30:40;4.63;;;1.10;;
50559;SDS011;36510;52.610;13.468;2022-09-09T20:35:30;2.33;;;1.30;;
50559;SDS011;36510;52.610;13.468;2022-09-09T20:40:22;2.47;;;1.23;;
50559;SDS011;36510;52.610;13.468;2022-09-09T20:45:12;1.63;;;1.10;;
50559;SDS011;36510;52.610;13.468;2022-09-09T20:50:05;1.63;;;1.00;;
50559;SDS011;36510;52.610;13.468;2022-09-09T20:54:56;1.55;;;0.90;;
50559;SDS011;36510;52.610;13.468;2022-09-09T20:59:46;2.03;;;1.00;;
50559;SDS011;36510;52.610;13.468;2022-09-09T21:04:39;2.55;;;1.10;;
50559;SDS011;36510;52.610;13.468;2022-09-09T21:09:30;2.75;;;1.08;;
50559;SDS011;36510;52.610;13.468;2022-09-09T21:14:21;3.80;;;1.10;;
50559;SDS011;36510;52.610;13.468;2022-09-09T21:19:12;4.13;;;1.60;;
50559;SDS011;36510;52.610;13.468;2022-09-09T21:24:03;6.35;;;1.60;;
50559;SDS011;36510;52.610;13.468;2022-09-09T21:28:54;4.28;;;1.27;;
50559;SDS011;36510;52.610;13.468;2022-09-09T21:33:45;3.17;;;1.20;;
50559;SDS011;36510;52.610;13.468;2022-09-09T21:38:35;2.00;;;0.93;;
50559;SDS011;36510;52.610;13.468;2022-09-09T21:43:28;1.98;;;0.80;;
50559;SDS011;36510;52.610;13.468;2022-09-09T21:48:19;2.35;;;0.90;;
50559;SDS011;36510;52.610;13.468;2022-09-09T21:53:10;2.92;;;0.93;;
50559;SDS011;36510;52.610;13.468;2022-09-09T21:58:09;1.85;;;1.00;;
50559;SDS011;36510;52.610;13.468;2022-09-09T22:03:01;2.40;;;0.93;;
50559;SDS011;36510;52.610;13.468;2022-09-09T22:07:52;2.72;;;0.98;;
50559;SDS011;36510;52.610;13.468;2022-09-09T22:12:43;2.05;;;0.85;;
50559;SDS011;36510;52.610;13.468;2022-09-09T22:17:33;2.13;;;1.00;;
50559;SDS011;36510;52.610;13.468;2022-09-09T22:22:24;2.15;;;1.00;;
50559;SDS011;36510;52.610;13.468;2022-09-09T22:27:15;2.67;;;1.48;;
50559;SDS011;36510;52.610;13.468;2022-09-09T22:32:05;3.00;;;1.73;;
50559;SDS011;36510;52.610;13.468;2022-09-09T22:36:57;2.60;;;1.60;;
50559;SDS011;36510;52.610;13.468;2022-09-09T22:41:48;1.90;;;1.20;;
50559;SDS011;36510;52.610;13.468;2022-09-09T22:46:39;2.17;;;1.30;;
50559;SDS011;36510;52.610;13.468;2022-09-09T22:51:30;2.05;;;0.90;;
50559;SDS011;36510;52.610;13.468;2022-09-09T22:56:23;2.45;;;1.30;;
50559;SDS011;36510;52.610;13.468;2022-09-09T23:01:18;2.95;;;1.33;;
50559;SDS011;36510;52.610;13.468;2022-09-09T23:06:10;2.72;;;1.20;;
50559;SDS011;36510;52.610;13.468;2022-09-09T23:11:04;3.63;;;1.80;;
50559;SDS011;36510;52.610;13.468;2022-09-09T23:15:59;3.53;;;1.40;;
50559;SDS011;36510;52.610;13.468;2022-09-09T23:20:56;10.30;;;4.57;;
50559;SDS011;36510;52.610;13.468;2022-09-09T23:25:50;8.98;;;4.25;;
50559;SDS011;36510;52.610;13.468;2022-09-09T23:30:41;7.80;;;2.85;;
50559;SDS011;36510;52.610;13.468;2022-09-09T23:35:31;7.82;;;2.92;;
50559;SDS011;36510;52.610;13.468;2022-09-09T23:40:22;8.32;;;3.30;;
50559;SDS011;36510;52.610;13.468;2022-09-09T23:45:13;5.97;;;2.47;;
50559;SDS011;36510;52.610;13.468;2022-09-09T23:50:04;4.80;;;2.03;;
50559;SDS011;36510;52.610;13.468;2022-09-09T23:54:56;4.05;;;2.00;;
50559;SDS011;36510;52.610;13.468;2022-09-09T23:59:48;4.07;;;1.67;;
